TAF SKSM
METAR SKSM
SKSM 080500Z 16005KT 9999 FEW020 23/20 Q1009 RMK A2981=
SKSM 080000Z 03012KT 9999 FEW020 29/22 Q1008 RMK A2979=
SKSM 062300Z 04003KT 9999 NSC 30/23 Q1009 RMK A2982=
WC SKSM
WS SKSM
WV SKSM